Time;durP1;ratioP1;P1;durP2;ratioP2;P2;SDS_P1;SDS_P2;PMS_P1;PMS_P2;Temp;Humidity;BMP_temperature;BMP_pressure;BME280_temperature;BME280_humidity;BME280_pressure;Samples;Min_cycle;Max_cycle;Signal;HPM_P1;HPM_P2
2022/04/01 00:00:25;;;;;;;16.70;5.33;;;;;;;17.31;60.28;98106.66;5134181;27;20596;-75
2022/04/01 00:02:52;;;;;;;21.07;4.93;;;;;;;17.38;59.82;98107.19;5134170;27;20621;-76
2022/04/01 00:05:20;;;;;;;17.43;5.20;;;;;;;17.51;56.07;98119.28;5132989;27;20198;-76
2022/04/01 00:07:47;;;;;;;10.37;3.20;;;;;;;17.91;51.64;98090.34;5133026;27;20254;-76
2022/04/01 00:10:14;;;;;;;12.20;3.47;;;;;;;18.38;49.90;98068.31;5133262;27;20199;-75
2022/04/01 00:12:41;;;;;;;18.57;4.57;;;;;;;18.65;52.33;98063.22;5133465;28;20194;-75
2022/04/01 00:15:09;;;;;;;17.43;5.70;;;;;;;18.53;54.39;98060.91;5133945;28;20261;-75
2022/04/01 00:17:36;;;;;;;15.53;4.73;;;;;;;18.40;55.74;98036.56;5132836;28;20278;-75
2022/04/01 00:20:03;;;;;;;17.27;5.43;;;;;;;18.15;57.91;98032.16;5133150;28;20251;-75
2022/04/01 00:22:31;;;;;;;23.73;6.10;;;;;;;18.04;58.32;98041.38;5133683;28;20230;-75
2022/04/01 00:24:58;;;;;;;22.60;6.00;;;;;;;18.01;58.96;98016.94;5132838;28;20663;-75
2022/04/01 00:27:25;;;;;;;19.10;5.67;;;;;;;17.79;59.80;98027.28;5133343;28;20228;-74
2022/04/01 00:29:52;;;;;;;23.13;5.93;;;;;;;17.45;61.10;97996.88;5133373;28;20194;-75
2022/04/01 00:32:21;;;;;;;20.93;6.33;;;;;;;16.91;63.44;97956.53;5133066;28;20197;-75
2022/04/01 00:34:49;;;;;;;18.37;6.13;;;;;;;16.76;64.26;97963.81;5135142;27;20595;-75
2022/04/01 00:37:16;;;;;;;19.77;5.77;;;;;;;16.68;64.84;97940.25;5137205;27;20281;-74
2022/04/01 00:39:45;;;;;;;21.10;6.37;;;;;;;16.67;65.33;97960.09;5137622;27;20194;-73
2022/04/01 00:42:12;;;;;;;22.43;6.40;;;;;;;16.45;66.12;97967.66;5136766;27;20229;-73
2022/04/01 00:44:40;;;;;;;24.50;6.60;;;;;;;16.48;66.14;98012.66;5137030;27;20193;-73
2022/04/01 00:47:09;;;;;;;17.37;5.47;;;;;;;16.40;66.30;97997.09;5136646;27;20194;-74
2022/04/01 00:49:37;;;;;;;21.73;6.20;;;;;;;16.43;66.25;97992.06;5136947;27;20267;-74
2022/04/01 00:52:05;;;;;;;18.83;5.93;;;;;;;16.46;66.29;97966.59;5137161;27;20257;-73
2022/04/01 00:54:35;;;;;;;18.07;5.33;;;;;;;16.31;66.57;97961.19;5136621;27;20273;-73
2022/04/01 00:57:03;;;;;;;29.73;5.80;;;;;;;16.21;66.89;97913.78;5137629;27;20593;-73
2022/04/01 00:59:30;;;;;;;22.70;6.23;;;;;;;16.20;67.38;97911.41;5136732;27;20320;-73
2022/04/01 01:01:57;;;;;;;26.50;6.40;;;;;;;16.09;67.86;97955.34;5136381;27;20749;-73
2022/04/01 01:04:24;;;;;;;22.33;6.63;;;;;;;15.89;68.90;97930.16;5136325;27;20193;-74
2022/04/01 01:06:55;;;;;;;20.50;5.70;;;;;;;16.07;68.18;97890.50;5136627;27;20238;-73
2022/04/01 01:09:24;;;;;;;21.10;6.07;;;;;;;16.05;67.15;97890.75;5136284;27;20246;-72
2022/04/01 01:11:52;;;;;;;22.97;6.23;;;;;;;16.14;67.11;97902.56;5136192;27;20407;-72
2022/04/01 01:14:26;;;;;;;19.90;5.93;;;;;;;15.97;67.34;97863.75;5136061;27;20190;-72
2022/04/01 01:16:53;;;;;;;14.50;5.70;;;;;;;16.00;66.84;97884.63;5136720;27;20181;-72
2022/04/01 01:19:21;;;;;;;23.83;5.60;;;;;;;16.01;66.91;97953.19;5136004;27;20738;-72
2022/04/01 01:21:50;;;;;;;14.73;5.10;;;;;;;16.01;66.66;98009.44;5136299;27;20186;-75
2022/04/01 01:24:26;;;;;;;18.13;6.13;;;;;;;15.96;67.06;98001.41;5136180;27;20674;-75
2022/04/01 01:26:54;;;;;;;19.60;6.47;;;;;;;16.09;67.03;97958.00;5137077;27;20264;-75
2022/04/01 01:29:23;;;;;;;16.60;5.30;;;;;;;16.18;66.54;97945.69;5137015;27;20260;-75
2022/04/01 01:31:51;;;;;;;20.40;6.40;;;;;;;16.28;66.37;97961.72;5136389;27;20190;-74
2022/04/01 01:34:18;;;;;;;22.10;6.20;;;;;;;16.26;66.42;97954.00;5136001;27;20190;-74
2022/04/01 01:36:45;;;;;;;17.77;6.70;;;;;;;16.03;67.44;97922.38;5135779;27;20194;-74
2022/04/01 01:39:12;;;;;;;20.40;5.97;;;;;;;15.93;67.79;97967.09;5135939;27;20613;-74
2022/04/01 01:41:40;;;;;;;21.43;6.13;;;;;;;16.06;67.14;97985.31;5135961;27;20250;-75
2022/04/01 01:44:07;;;;;;;22.20;5.90;;;;;;;16.16;66.68;97974.63;5136134;27;20594;-75
2022/04/01 01:46:34;;;;;;;18.87;6.53;;;;;;;16.12;66.59;97971.66;5135243;27;20194;-76
2022/04/01 01:49:01;;;;;;;27.17;6.23;;;;;;;16.18;66.18;98026.03;5135788;27;20200;-76
2022/04/01 01:57:00;;;;;;;15.87;5.93;;;;;;;15.71;68.37;97962.00;5131703;27;20185;-74
2022/04/01 01:59:26;;;;;;;22.50;6.43;;;;;;;15.74;67.41;97991.72;5135619;27;20217;-74
2022/04/01 02:01:54;;;;;;;13.77;6.77;;;;;;;15.45;69.36;97955.78;5135224;27;20186;-75
2022/04/01 02:04:22;;;;;;;19.23;6.40;;;;;;;15.56;69.12;97944.03;5135499;27;20242;-75
2022/04/01 02:06:49;;;;;;;19.13;5.50;;;;;;;15.66;68.45;97906.59;5135432;27;20190;-73
2022/04/01 02:09:15;;;;;;;22.87;5.83;;;;;;;15.73;67.41;97848.22;5135651;27;20250;-74
2022/04/01 02:11:43;;;;;;;23.37;6.33;;;;;;;15.75;66.92;97899.63;5135017;27;20198;-74
2022/04/01 02:14:12;;;;;;;19.87;5.90;;;;;;;15.81;66.93;97938.72;5134966;27;20189;-74
2022/04/01 02:16:39;;;;;;;26.30;6.57;;;;;;;15.67;67.12;97956.38;5135464;27;20218;-72
2022/04/01 02:19:09;;;;;;;19.10;6.13;;;;;;;15.63;67.12;97896.41;5136026;27;20270;-72
2022/04/01 02:21:36;;;;;;;28.53;6.60;;;;;;;15.81;64.57;97869.09;5135460;27;20185;-73
2022/04/01 02:24:10;;;;;;;25.17;6.07;;;;;;;15.93;64.69;97948.38;5135733;27;20217;-72
2022/04/01 02:26:37;;;;;;;22.20;7.17;;;;;;;15.82;66.00;97926.91;5135504;27;20193;-73
2022/04/01 02:29:05;;;;;;;22.27;6.00;;;;;;;15.88;66.14;97924.28;5134665;27;20186;-72
2022/04/01 02:31:33;;;;;;;20.93;6.33;;;;;;;15.96;65.20;97905.78;5134612;27;20197;-72
2022/04/01 02:34:00;;;;;;;24.73;5.87;;;;;;;15.86;64.12;97855.69;5135157;27;20243;-73
2022/04/01 02:36:27;;;;;;;24.57;5.90;;;;;;;15.93;64.40;97907.13;5135026;27;20217;-73
2022/04/01 02:38:54;;;;;;;18.57;6.60;;;;;;;15.93;64.14;97889.44;5134482;27;20548;-73
2022/04/01 02:41:22;;;;;;;38.23;7.27;;;;;;;15.99;63.94;97899.88;5134448;27;20194;-74
2022/04/01 02:43:50;;;;;;;21.73;5.67;;;;;;;16.07;64.16;97957.47;5135255;27;20189;-74
2022/04/01 02:46:16;;;;;;;19.10;6.83;;;;;;;16.04;63.83;97939.28;5134951;27;20233;-74
2022/04/01 02:48:44;;;;;;;21.93;5.80;;;;;;;16.20;63.25;97943.53;5134748;27;20198;-75
2022/04/01 02:51:11;;;;;;;28.00;6.40;;;;;;;16.32;62.44;97939.50;5134571;27;20262;-75
2022/04/01 02:53:38;;;;;;;27.63;6.73;;;;;;;16.41;62.36;97940.56;5134490;27;20190;-74
2022/04/01 02:56:05;;;;;;;25.13;5.80;;;;;;;16.48;62.17;97956.38;5133534;27;20235;-75
2022/04/01 02:58:32;;;;;;;29.50;7.10;;;;;;;16.46;62.01;97945.94;5133797;27;20558;-73
2022/04/01 03:00:59;;;;;;;26.17;6.77;;;;;;;16.39;62.20;97925.81;5133922;27;20655;-74
2022/04/01 03:03:26;;;;;;;28.57;8.47;;;;;;;16.45;62.02;97967.66;5133947;27;20194;-73
2022/04/01 03:05:54;;;;;;;30.50;7.30;;;;;;;16.54;61.84;97984.78;5133916;27;20672;-73
2022/04/01 03:08:22;;;;;;;21.50;6.33;;;;;;;16.40;62.66;97994.41;5133884;27;20281;-73
2022/04/01 03:10:48;;;;;;;26.47;11.00;;;;;;;16.07;64.62;97985.06;5134082;27;20193;-73
2022/04/01 03:13:15;;;;;;;24.83;6.63;;;;;;;15.89;65.92;97986.38;5133798;27;20190;-74
2022/04/01 03:15:42;;;;;;;24.80;7.43;;;;;;;15.71;66.54;97999.47;5133951;27;20274;-74
2022/04/01 03:18:09;;;;;;;23.73;6.00;;;;;;;15.54;67.59;97999.72;5133686;27;20186;-74
2022/04/01 03:20:37;;;;;;;23.23;5.57;;;;;;;15.51;67.44;97988.72;5134524;27;20190;-75
2022/04/01 03:23:06;;;;;;;21.17;7.53;;;;;;;15.37;69.04;97993.78;5133951;27;20261;-77
2022/04/01 03:25:33;;;;;;;22.13;8.33;;;;;;;15.35;68.99;97990.56;5133752;27;20196;-76
2022/04/01 03:28:02;;;;;;;24.03;7.20;;;;;;;15.32;69.40;98004.41;5134197;27;20228;-76
2022/04/01 03:30:30;;;;;;;35.30;17.13;;;;;;;15.31;69.44;97994.78;5133501;27;20197;-76
2022/04/01 03:32:57;;;;;;;27.17;9.57;;;;;;;15.34;69.70;97982.75;5134181;27;20186;-76
2022/04/01 03:35:24;;;;;;;23.33;7.40;;;;;;;15.20;69.95;97977.09;5133381;27;20242;-76
2022/04/01 03:37:51;;;;;;;22.47;6.43;;;;;;;15.11;70.62;97967.97;5133718;27;20198;-76
2022/04/01 03:40:20;;;;;;;23.00;6.57;;;;;;;15.11;70.99;97973.31;5133331;27;20678;-75
2022/04/01 03:42:50;;;;;;;25.60;6.73;;;;;;;15.11;70.84;97973.31;5133347;27;20239;-75
2022/04/01 03:45:17;;;;;;;27.80;6.87;;;;;;;15.15;70.68;97985.09;5133491;27;20205;-75
2022/04/01 03:47:52;;;;;;;21.40;6.60;;;;;;;15.21;70.58;97981.38;5134388;27;20217;-75
2022/04/01 03:50:29;;;;;;;25.00;7.70;;;;;;;15.23;70.37;97971.22;5133268;27;20242;-73
2022/04/01 03:53:01;;;;;;;21.17;6.07;;;;;;;15.20;70.28;97961.03;5133936;27;20539;-73
2022/04/01 03:55:32;;;;;;;25.80;7.67;;;;;;;15.22;70.37;97974.16;5133712;27;20201;-73
2022/04/01 03:58:03;;;;;;;20.47;6.63;;;;;;;15.25;70.40;97963.75;5133942;27;20194;-73
2022/04/01 04:00:30;;;;;;;25.37;7.13;;;;;;;15.22;69.81;97948.22;5133110;27;20238;-73
2022/04/01 04:02:58;;;;;;;25.00;7.43;;;;;;;15.15;70.06;97958.34;5133274;27;20213;-73
2022/04/01 04:05:27;;;;;;;35.53;8.10;;;;;;;15.06;70.27;97962.59;5133267;27;20194;-74
2022/04/01 04:07:55;;;;;;;31.97;8.13;;;;;;;14.85;71.38;97950.22;5133034;27;20189;-74
2022/04/01 04:10:27;;;;;;;30.80;7.80;;;;;;;14.81;71.39;97957.16;5133204;27;20196;-74
2022/04/01 04:12:57;;;;;;;31.87;7.70;;;;;;;14.80;71.22;97944.03;5133996;27;20190;-75
2022/04/01 04:15:27;;;;;;;25.57;7.10;;;;;;;14.90;70.57;97944.88;5132867;28;20200;-75
2022/04/01 04:17:58;;;;;;;24.10;7.27;;;;;;;15.01;70.61;97967.94;5133880;28;20630;-74
2022/04/01 04:20:36;;;;;;;30.40;7.63;;;;;;;15.01;69.88;97948.41;5133582;28;20246;-74
2022/04/01 04:23:10;;;;;;;32.60;8.47;;;;;;;14.90;69.85;97931.50;5133537;28;20642;-74
2022/04/01 04:25:40;;;;;;;27.20;8.60;;;;;;;14.94;70.01;97966.53;5132666;28;20210;-75
2022/04/01 04:28:12;;;;;;;29.90;8.07;;;;;;;15.02;69.44;97958.84;5132554;28;20194;-74
2022/04/01 04:30:43;;;;;;;34.17;8.43;;;;;;;15.08;69.06;97936.38;5132456;28;20268;-76
2022/04/01 04:33:10;;;;;;;28.43;9.07;;;;;;;15.04;69.14;97956.69;5133153;28;20265;-76
2022/04/01 04:35:38;;;;;;;42.60;8.83;;;;;;;15.01;69.76;97959.91;5132442;28;20214;-74
2022/04/01 04:38:06;;;;;;;17.47;5.77;;;;;;;15.12;72.52;97942.81;5132465;28;20662;-68
2022/04/01 04:40:34;;;;;;;29.87;7.27;;;;;;;15.56;73.95;97992.22;5132745;28;20270;-67
2022/04/01 04:43:01;;;;;;;33.80;7.80;;;;;;;15.84;68.16;97966.81;5132758;28;20578;-67
2022/04/01 04:45:30;;;;;;;23.50;6.87;;;;;;;15.93;67.67;97964.44;5132694;28;20190;-68
2022/04/01 04:47:59;;;;;;;28.73;7.67;;;;;;;16.22;65.10;97968.19;5132643;28;20190;-72
2022/04/01 04:50:25;;;;;;;46.67;9.90;;;;;;;16.28;63.93;97965.22;5132631;28;20623;-70
2022/04/01 04:52:54;;;;;;;30.80;8.47;;;;;;;16.35;64.24;97989.06;5132281;28;20686;-70
2022/04/01 04:55:22;;;;;;;40.00;8.40;;;;;;;16.41;63.83;97967.38;5132854;28;20190;-70
2022/04/01 04:57:51;;;;;;;44.90;9.27;;;;;;;16.37;64.03;97946.75;5132323;28;20204;-74
2022/04/01 05:00:20;;;;;;;36.07;10.37;;;;;;;16.52;63.49;97960.94;5133363;27;20239;-72
2022/04/01 05:03:09;;;;;;;39.40;9.00;;;;;;;16.76;62.35;97980.72;5132198;28;20196;-72
2022/04/01 05:05:41;;;;;;;38.23;10.40;;;;;;;16.70;62.17;97970.28;5130845;27;20194;-72
2022/04/01 05:08:17;;;;;;;41.63;10.47;;;;;;;16.76;62.37;97975.38;5133208;28;20198;-72
2022/04/01 05:10:53;;;;;;;39.47;9.43;;;;;;;17.00;61.62;97964.81;5133105;28;20190;-72
2022/04/01 05:13:25;;;;;;;44.73;9.97;;;;;;;17.23;61.22;97986.47;5132282;28;20271;-72
2022/04/01 05:15:54;;;;;;;54.83;10.50;;;;;;;17.35;60.20;97962.00;5132122;28;20774;-73
2022/04/01 05:18:30;;;;;;;46.93;9.20;;;;;;;17.52;59.30;97967.84;5132147;28;20281;-75
2022/04/01 05:21:01;;;;;;;35.93;9.17;;;;;;;17.59;59.05;97946.84;5135530;27;20182;-72
2022/04/01 05:23:42;;;;;;;43.47;10.87;;;;;;;17.75;59.73;97946.47;5136223;27;20232;-68
2022/04/01 05:26:13;;;;;;;36.53;10.93;;;;;;;18.18;61.42;97944.78;5136776;27;20192;-68
2022/04/01 05:28:45;;;;;;;40.00;10.00;;;;;;;18.62;59.38;97961.63;5136774;27;20639;-68
2022/04/01 05:31:20;;;;;;;42.13;10.00;;;;;;;19.10;56.30;97968.59;5136917;27;20222;-68
2022/04/01 05:33:53;;;;;;;57.83;10.03;;;;;;;19.39;55.42;97963.94;5136523;27;20256;-67
2022/04/01 05:36:20;;;;;;;59.20;11.57;;;;;;;19.70;52.24;97965.97;5135990;27;20217;-68
2022/04/01 05:38:48;;;;;;;43.03;9.67;;;;;;;19.67;51.25;97939.59;5136134;27;20265;-69
2022/04/01 05:41:19;;;;;;;47.63;10.17;;;;;;;19.73;53.42;97965.34;5136012;27;20198;-71
2022/04/01 05:43:47;;;;;;;38.70;10.77;;;;;;;19.67;51.04;97957.63;5136748;27;20186;-72
2022/04/01 05:46:14;;;;;;;43.50;9.50;;;;;;;19.80;50.02;97975.75;5135469;27;20674;-70
2022/04/01 05:48:42;;;;;;;43.93;11.17;;;;;;;19.93;49.77;97972.34;5135442;27;20194;-70
2022/04/01 05:51:13;;;;;;;36.87;9.40;;;;;;;19.88;50.34;97937.38;5135720;27;20262;-70
2022/04/01 05:53:40;;;;;;;39.67;9.53;;;;;;;19.67;51.91;97946.84;5135210;27;20547;-70
2022/04/01 05:56:09;;;;;;;44.27;8.67;;;;;;;19.95;50.00;97962.06;5135182;27;20695;-71
2022/04/01 05:58:36;;;;;;;35.30;9.23;;;;;;;19.68;50.21;97937.69;5135590;27;20232;-72
2022/04/01 06:01:13;;;;;;;29.17;9.07;;;;;;;19.75;50.46;97948.91;5135207;27;20658;-71
2022/04/01 06:04:09;;;;;;;34.90;9.10;;;;;;;20.23;49.11;97958.41;5136012;27;20206;-70
2022/04/01 06:06:40;;;;;;;29.73;9.33;;;;;;;20.58;48.13;97933.50;5135766;27;20192;-71
2022/04/01 06:09:20;;;;;;;48.10;10.10;;;;;;;20.73;47.44;97925.13;5135710;27;20190;-71
2022/04/01 06:12:01;;;;;;;44.00;9.37;;;;;;;21.39;45.79;97947.03;5134933;27;20646;-71
2022/04/01 06:14:36;;;;;;;50.97;9.10;;;;;;;21.85;44.63;97966.56;5133636;27;20208;-72
2022/04/01 06:17:08;;;;;;;43.63;9.37;;;;;;;22.32;43.35;97965.16;5135411;27;20301;-72
2022/04/01 06:19:41;;;;;;;39.70;10.00;;;;;;;22.84;41.75;97978.72;5134889;27;20636;-72
2022/04/01 06:22:14;;;;;;;34.57;9.07;;;;;;;23.28;41.26;97978.59;5135695;27;20251;-72
2022/04/01 06:24:46;;;;;;;40.57;9.77;;;;;;;23.63;40.28;97968.63;5135992;27;20257;-71
2022/04/01 06:27:19;;;;;;;48.87;9.67;;;;;;;23.38;40.40;97937.66;5134631;27;20674;-71
2022/04/01 06:29:56;;;;;;;42.67;10.40;;;;;;;23.25;41.23;97938.59;5134485;27;20194;-70
2022/04/01 06:32:38;;;;;;;46.77;9.40;;;;;;;23.63;40.53;97952.34;5130316;27;20239;-73
2022/04/01 06:35:08;;;;;;;37.90;9.63;;;;;;;24.13;39.61;97946.16;5127527;27;20193;-69
2022/04/01 06:37:42;;;;;;;47.53;9.93;;;;;;;24.29;38.87;97943.75;5134476;27;20256;-72
2022/04/01 06:40:11;;;;;;;48.50;10.43;;;;;;;24.68;37.94;97947.06;5134541;27;20646;-71
2022/04/01 06:42:39;;;;;;;37.97;10.17;;;;;;;24.81;37.66;97927.03;5135097;27;20299;-71
2022/04/01 06:45:08;;;;;;;40.63;9.27;;;;;;;25.28;37.25;97944.09;5134637;27;20193;-71
2022/04/01 06:47:35;;;;;;;47.97;10.50;;;;;;;25.69;36.49;97951.50;5134451;27;20201;-72
2022/04/01 06:50:02;;;;;;;47.50;10.67;;;;;;;25.99;35.10;97929.38;5134367;27;20193;-72
2022/04/01 06:52:28;;;;;;;52.07;10.40;;;;;;;26.29;34.72;97932.78;5134235;27;20190;-73
2022/04/01 06:54:57;;;;;;;43.60;9.73;;;;;;;26.36;34.01;97941.19;5134150;27;20255;-73
2022/04/01 06:57:24;;;;;;;196.40;18.77;;;;;;;26.21;34.36;97944.56;5134023;27;20222;-73
2022/04/01 06:59:51;;;;;;;77.47;11.57;;;;;;;26.01;33.96;97937.97;5134231;27;20190;-73
2022/04/01 07:02:18;;;;;;;50.53;10.17;;;;;;;25.94;35.04;97935.03;5133785;27;20690;-72
2022/04/01 07:04:45;;;;;;;61.27;11.67;;;;;;;26.20;34.30;97926.59;5133640;27;20198;-73
2022/04/01 07:07:11;;;;;;;48.97;10.70;;;;;;;26.34;34.16;97921.69;5133978;27;20194;-74
2022/04/01 07:09:38;;;;;;;38.97;9.93;;;;;;;26.46;33.56;97936.09;5133999;27;20186;-73
2022/04/01 07:12:07;;;;;;;39.63;10.00;;;;;;;26.37;33.78;97926.47;5133685;27;20243;-73
2022/04/01 07:14:33;;;;;;;48.83;11.13;;;;;;;26.26;32.67;97917.09;5133719;27;20194;-73
2022/04/01 07:17:01;;;;;;;53.03;10.30;;;;;;;26.37;33.45;97923.72;5133761;27;20297;-73
2022/04/01 07:19:28;;;;;;;47.10;10.73;;;;;;;26.49;33.14;97923.72;5133867;27;20190;-73
2022/04/01 07:21:56;;;;;;;45.27;9.90;;;;;;;26.73;33.48;97908.28;5133704;27;20197;-74
2022/04/01 07:24:22;;;;;;;50.13;10.50;;;;;;;27.02;33.66;97905.34;5133819;27;20182;-73
2022/04/01 07:26:49;;;;;;;44.97;9.33;;;;;;;27.38;33.25;97912.72;5134012;27;20723;-73
2022/04/01 07:29:17;;;;;;;53.57;10.30;;;;;;;27.30;32.59;97905.47;5133378;27;20190;-73
2022/04/01 07:34:32;;;;;;;35.63;9.10;;;;;;;26.95;32.92;97912.50;5133487;27;20185;-73
2022/04/01 07:36:59;;;;;;;37.10;9.97;;;;;;;26.93;32.96;97901.13;5133240;27;20217;-73
2022/04/01 07:39:26;;;;;;;36.90;9.93;;;;;;;27.18;33.21;97908.16;5133731;27;20205;-73
2022/04/01 07:41:53;;;;;;;34.10;9.37;;;;;;;27.48;32.38;97906.81;5133569;27;20213;-73
2022/04/01 07:44:22;;;;;;;42.73;10.97;;;;;;;27.60;31.94;97920.44;5132839;27;20248;-73
2022/04/01 07:46:48;;;;;;;42.83;10.63;;;;;;;27.61;32.01;97911.09;5133959;27;20194;-73
2022/04/01 07:49:15;;;;;;;40.97;10.83;;;;;;;27.44;32.04;97903.97;5133029;27;20731;-73
2022/04/01 07:51:43;;;;;;;38.40;10.10;;;;;;;27.24;31.82;97910.34;5133188;27;20617;-73
2022/04/01 07:54:10;;;;;;;44.90;10.17;;;;;;;27.18;32.47;97914.44;5133107;27;20215;-73
2022/04/01 07:56:37;;;;;;;38.57;9.63;;;;;;;27.54;31.70;97927.25;5133191;27;20218;-73
2022/04/01 07:59:05;;;;;;;39.97;10.70;;;;;;;27.70;31.11;97925.41;5133225;27;20190;-71
2022/04/01 08:01:34;;;;;;;40.73;10.13;;;;;;;27.35;31.56;97897.03;5132909;27;20274;-73
2022/04/01 08:04:00;;;;;;;44.93;10.13;;;;;;;27.45;31.88;97911.03;5132783;27;20194;-73
2022/04/01 08:06:27;;;;;;;41.20;10.40;;;;;;;27.70;31.16;97904.38;5133126;27;20249;-73
2022/04/01 08:08:55;;;;;;;49.67;10.97;;;;;;;28.04;30.19;97908.47;5132756;27;20654;-72
2022/04/01 08:11:23;;;;;;;57.03;10.07;;;;;;;28.23;29.15;97912.16;5132798;27;20666;-73
2022/04/01 08:13:50;;;;;;;50.03;11.20;;;;;;;27.98;29.45;97902.47;5133150;27;20193;-73
2022/04/01 08:16:16;;;;;;;40.07;10.67;;;;;;;27.69;29.72;97891.84;5132678;28;20188;-73
2022/04/01 08:18:44;;;;;;;47.93;9.80;;;;;;;27.64;29.11;97904.97;5132886;28;20286;-72
2022/04/01 08:21:11;;;;;;;45.60;11.50;;;;;;;27.56;29.54;97914.06;5132608;28;20653;-73
2022/04/01 08:23:38;;;;;;;43.23;10.83;;;;;;;27.87;29.43;97903.31;5132904;27;20221;-73
2022/04/01 08:26:06;;;;;;;43.93;10.57;;;;;;;27.90;28.62;97897.97;5133028;27;20194;-72
2022/04/01 08:28:33;;;;;;;42.20;10.30;;;;;;;28.11;28.51;97892.31;5132519;28;20662;-73
2022/04/01 08:31:00;;;;;;;49.60;9.70;;;;;;;28.43;27.78;97894.75;5133070;28;20243;-72
2022/04/01 08:33:27;;;;;;;47.83;11.67;;;;;;;28.45;27.55;97883.50;5132288;28;20257;-73
2022/04/01 08:35:55;;;;;;;53.47;11.60;;;;;;;28.73;27.41;97881.47;5132724;28;20286;-73
2022/04/01 08:38:21;;;;;;;47.53;10.87;;;;;;;29.06;27.41;97879.19;5132628;28;20217;-72
2022/04/01 08:40:48;;;;;;;54.93;12.60;;;;;;;29.40;26.70;97883.09;5132355;28;20689;-72
2022/04/01 08:43:25;;;;;;;56.47;11.27;;;;;;;29.43;26.14;97883.19;5132443;28;20715;-75
2022/04/01 08:45:52;;;;;;;49.90;11.07;;;;;;;29.38;26.44;97869.78;5133183;28;20186;-72
2022/04/01 08:48:19;;;;;;;45.97;10.63;;;;;;;29.02;26.65;97872.84;5132631;28;20576;-73
2022/04/01 08:50:45;;;;;;;54.07;10.90;;;;;;;28.64;27.66;97864.47;5132153;27;20626;-72
2022/04/01 08:53:14;;;;;;;58.90;12.07;;;;;;;28.80;27.08;97868.00;5132730;28;20186;-72
2022/04/01 08:55:46;;;;;;;70.63;13.03;;;;;;;28.83;27.37;97854.41;5134475;27;20225;-72
2022/04/01 08:58:16;;;;;;;48.50;11.33;;;;;;;28.53;27.36;97850.53;5136329;27;20289;-72
2022/04/01 09:00:43;;;;;;;57.90;11.77;;;;;;;28.84;27.09;97847.00;5136333;27;20225;-72
2022/04/01 09:03:12;;;;;;;46.17;10.63;;;;;;;29.02;26.98;97840.84;5136177;27;20277;-72
2022/04/01 09:05:43;;;;;;;52.50;12.30;;;;;;;29.37;26.63;97832.63;5136102;27;20722;-72
2022/04/01 09:08:10;;;;;;;60.43;11.70;;;;;;;29.29;26.21;97839.09;5137391;27;20268;-72
2022/04/01 09:10:54;;;;;;;62.77;13.13;;;;;;;29.13;26.03;97824.66;5136019;27;20697;-72
2022/04/01 09:13:22;;;;;;;64.10;12.17;;;;;;;28.81;27.10;97812.19;5136088;27;20646;-72
2022/04/01 09:15:49;;;;;;;57.57;12.67;;;;;;;28.81;26.92;97820.38;5135952;27;20190;-72
2022/04/01 09:18:35;;;;;;;53.57;12.20;;;;;;;29.13;26.35;97819.19;5135892;27;20694;-72
2022/04/01 09:21:02;;;;;;;68.00;12.40;;;;;;;29.10;26.28;97803.50;5136275;27;20182;-72
2022/04/01 09:23:28;;;;;;;59.57;12.73;;;;;;;29.14;26.55;97809.84;5136557;27;20233;-72
2022/04/01 09:25:57;;;;;;;63.57;12.43;;;;;;;29.23;26.31;97804.94;5136008;27;20186;-72
2022/04/01 09:28:26;;;;;;;70.37;12.60;;;;;;;29.62;25.88;97803.06;5135760;27;20226;-72
2022/04/01 09:31:07;;;;;;;61.57;11.77;;;;;;;29.84;25.50;97800.38;5136083;27;20562;-72
2022/04/01 09:33:45;;;;;;;57.80;12.53;;;;;;;29.82;25.89;97789.03;5135983;27;20182;-72
2022/04/01 09:36:14;;;;;;;60.53;14.27;;;;;;;29.64;25.62;97778.88;5136303;27;20214;-72
2022/04/01 09:38:52;;;;;;;60.37;11.70;;;;;;;29.28;25.50;97788.28;5135527;27;20340;-72
2022/04/01 09:41:20;;;;;;;68.40;12.70;;;;;;;29.68;25.66;97788.72;5136054;27;20182;-72
2022/04/01 09:43:47;;;;;;;60.10;13.03;;;;;;;29.75;25.18;97786.13;5135951;27;20266;-72
2022/04/01 09:46:25;;;;;;;69.10;12.83;;;;;;;29.40;25.65;97790.09;5135655;27;20276;-72
2022/04/01 09:48:56;;;;;;;60.13;12.40;;;;;;;28.98;25.72;97787.19;5136217;27;20193;-73
2022/04/01 09:51:23;;;;;;;60.87;13.23;;;;;;;29.24;25.55;97782.72;5135352;27;20231;-72
2022/04/01 09:53:54;;;;;;;52.13;11.70;;;;;;;29.21;25.57;97768.97;5135315;27;20190;-72
2022/04/01 09:56:36;;;;;;;58.37;12.77;;;;;;;29.14;24.98;97777.03;5135599;27;20192;-72
2022/04/01 09:59:04;;;;;;;58.73;13.03;;;;;;;29.23;25.23;97763.16;5135209;27;20205;-72
2022/04/01 10:01:32;;;;;;;59.73;11.90;;;;;;;29.32;25.33;97764.53;5135454;27;20244;-72
2022/04/01 10:03:58;;;;;;;57.70;11.90;;;;;;;29.53;24.85;97756.75;5135370;27;20194;-73
2022/04/01 10:06:25;;;;;;;68.93;13.53;;;;;;;29.13;25.34;97770.78;5134634;27;20194;-72
2022/04/01 10:08:53;;;;;;;74.77;13.80;;;;;;;29.15;25.33;97756.72;5135381;27;20255;-72
2022/04/01 10:11:23;;;;;;;69.83;14.07;;;;;;;29.06;25.33;97756.94;5135021;27;20190;-72
2022/04/01 10:13:53;;;;;;;59.87;12.90;;;;;;;28.96;25.79;97743.00;5134915;27;20196;-72
2022/04/01 10:16:21;;;;;;;80.23;12.90;;;;;;;28.71;25.38;97742.44;5135125;27;20186;-73
2022/04/01 10:18:48;;;;;;;53.80;12.13;;;;;;;28.60;25.72;97740.63;5135165;27;20221;-73
2022/04/01 10:21:19;;;;;;;66.67;12.93;;;;;;;28.64;25.32;97750.50;5134798;27;20723;-72
2022/04/01 10:24:00;;;;;;;57.87;11.87;;;;;;;28.87;25.63;97750.63;5135611;27;20682;-72
2022/04/01 10:26:32;;;;;;;60.27;12.73;;;;;;;29.05;25.07;97740.88;5135054;27;20234;-72
2022/04/01 10:29:02;;;;;;;59.67;11.93;;;;;;;29.05;25.07;97735.41;5134692;27;20674;-72
2022/04/01 10:31:28;;;;;;;69.20;12.67;;;;;;;29.19;25.01;97728.31;5134513;27;20193;-72
2022/04/01 10:34:21;;;;;;;61.77;11.97;;;;;;;29.48;24.61;97726.91;5134523;27;20630;-73
2022/04/01 10:37:00;;;;;;;74.80;12.40;;;;;;;29.64;24.46;97697.53;5134390;27;20780;-72
2022/04/01 10:39:29;;;;;;;58.77;11.87;;;;;;;29.71;23.96;97702.34;5135249;27;20209;-72
2022/04/01 10:42:11;;;;;;;62.77;11.70;;;;;;;29.80;24.28;97709.19;5134311;27;20201;-73
2022/04/01 10:44:51;;;;;;;59.60;12.67;;;;;;;29.94;23.45;97717.66;5135224;27;20240;-72
2022/04/01 10:47:18;;;;;;;65.40;12.73;;;;;;;29.92;23.87;97695.31;5135233;27;20587;-72
2022/04/01 10:52:30;;;;;;;63.50;12.70;;;;;;;30.27;23.73;97709.63;5134419;27;20195;-72
2022/04/01 10:55:09;;;;;;;63.70;13.67;;;;;;;30.14;24.12;97713.72;5134637;27;20621;-69
2022/04/01 10:57:41;;;;;;;55.20;12.27;;;;;;;29.20;25.31;97699.03;5134306;27;20213;-69
2022/04/01 11:00:14;;;;;;;55.03;11.53;;;;;;;28.99;26.11;97698.56;5134235;27;20236;-69
2022/04/01 11:02:41;;;;;;;69.60;12.77;;;;;;;29.18;25.91;97693.09;5133936;27;20188;-68
2022/04/01 11:05:29;;;;;;;55.53;12.43;;;;;;;29.00;25.73;97694.69;5134106;27;20194;-69
2022/04/01 11:08:16;;;;;;;70.80;12.00;;;;;;;28.96;25.89;97685.59;5133736;27;20197;-69
2022/04/01 11:11:07;;;;;;;68.00;11.97;;;;;;;28.80;25.64;97680.19;5133689;27;20196;-69
2022/04/01 11:13:35;;;;;;;68.83;12.63;;;;;;;28.82;25.70;97671.63;5134033;27;20221;-69
2022/04/01 11:16:19;;;;;;;54.07;11.50;;;;;;;28.82;25.44;97660.69;5133587;27;20194;-70
2022/04/01 11:19:11;;;;;;;54.67;10.90;;;;;;;28.37;26.26;97679.56;5134007;27;20209;-70
2022/04/01 11:21:39;;;;;;;122.70;14.70;;;;;;;28.14;26.64;97671.22;5133930;27;20196;-72
2022/04/01 11:24:22;;;;;;;63.70;10.40;;;;;;;28.23;26.39;97655.47;5134122;27;20221;-72
2022/04/01 11:26:49;;;;;;;65.83;11.53;;;;;;;27.40;27.41;97654.88;5133368;27;20273;-72
2022/04/01 11:29:19;;;;;;;56.13;10.10;;;;;;;27.33;27.14;97648.44;5133716;27;20250;-72
2022/04/01 11:31:47;;;;;;;75.27;10.97;;;;;;;27.39;27.07;97641.56;5133270;27;20215;-72
2022/04/01 11:34:14;;;;;;;58.87;10.67;;;;;;;26.97;27.58;97651.28;5133180;27;20200;-73
2022/04/01 11:36:41;;;;;;;101.17;13.80;;;;;;;27.02;27.45;97640.13;5133694;27;20205;-72
2022/04/01 11:39:15;;;;;;;56.17;10.63;;;;;;;27.30;27.70;97649.94;5133243;27;20694;-72
2022/04/01 11:41:51;;;;;;;56.13;10.47;;;;;;;27.13;27.95;97633.88;5133108;27;20186;-73
2022/04/01 11:44:18;;;;;;;69.17;11.67;;;;;;;26.89;27.09;97638.59;5134344;27;20182;-73